createdAt,value
2022-10-29T00:03:00.238Z,0.80
2022-10-29T00:08:02.295Z,1.63
2022-10-29T00:13:04.537Z,1.25
2022-10-29T00:18:06.323Z,1.27
2022-10-29T00:23:08.217Z,1.35
2022-10-29T00:28:10.030Z,1.30
2022-10-29T00:33:13.121Z,1.50
2022-10-29T00:38:15.042Z,1.33
2022-10-29T00:43:19.391Z,1.38
2022-10-29T00:48:23.774Z,1.38
2022-10-29T00:53:28.842Z,1.50
2022-10-29T00:58:30.957Z,1.27
2022-10-29T01:03:33.187Z,1.40
2022-10-29T01:08:35.383Z,0.90
2022-10-29T01:14:11.335Z,2.33
2022-10-29T01:19:26.603Z,1.35
2022-10-29T01:24:57.544Z,1.55
2022-10-29T01:30:24.312Z,1.42
2022-10-29T01:35:35.200Z,1.90
2022-10-29T01:40:46.927Z,1.58
2022-10-29T01:45:56.623Z,2.03
2022-10-29T01:51:03.843Z,1.48
2022-10-29T01:56:05.999Z,1.85
2022-10-29T02:01:32.397Z,1.45
2022-10-29T02:06:58.414Z,1.00
2022-10-29T02:12:03.134Z,1.20
2022-10-29T02:17:06.472Z,2.17
2022-10-29T02:22:08.202Z,1.60
2022-10-29T02:27:10.030Z,1.33
2022-10-29T02:32:12.964Z,1.52
2022-10-29T02:37:14.843Z,1.58
2022-10-29T02:42:17.243Z,1.75
2022-10-29T02:47:19.131Z,1.58
2022-10-29T02:52:20.960Z,1.27
2022-10-29T02:57:22.762Z,1.88
2022-10-29T03:02:24.689Z,1.52
2022-10-29T03:07:26.703Z,1.98
2022-10-29T03:12:28.528Z,1.48
2022-10-29T03:17:30.406Z,1.88
2022-10-29T03:22:32.296Z,2.20
2022-10-29T03:27:42.195Z,1.27
2022-10-29T03:32:45.662Z,1.70
2022-10-29T03:37:52.006Z,1.60
2022-10-29T03:42:54.223Z,1.58
2022-10-29T03:47:57.646Z,1.70
2022-10-29T03:52:59.968Z,2.03
2022-10-29T03:58:01.824Z,1.52
2022-10-29T04:03:04.960Z,1.88
2022-10-29T04:08:06.843Z,1.65
2022-10-29T04:13:08.678Z,2.00
2022-10-29T04:18:11.562Z,1.77
2022-10-29T04:27:07.989Z,1.60
2022-10-29T04:28:43.051Z,1.42
2022-10-29T04:33:46.375Z,1.70
2022-10-29T04:38:48.175Z,1.77
2022-10-29T04:43:49.999Z,1.85
2022-10-29T04:48:51.915Z,2.10
2022-10-29T04:53:53.851Z,1.80
2022-10-29T04:58:55.669Z,1.70
2022-10-29T05:04:00.000Z,1.73
2022-10-29T05:09:02.378Z,1.58
2022-10-29T05:14:04.222Z,2.00
2022-10-29T05:19:06.767Z,1.70
2022-10-29T05:24:08.723Z,1.92
2022-10-29T05:29:10.541Z,2.03
2022-10-29T05:34:12.558Z,1.65
2022-10-29T05:39:14.470Z,2.50
2022-10-29T05:44:16.294Z,2.33
2022-10-29T05:49:18.128Z,2.65
2022-10-29T05:54:19.933Z,2.28
2022-10-29T05:59:21.783Z,3.08
2022-10-29T06:04:23.786Z,1.85
2022-10-29T06:09:25.616Z,3.72
2022-10-29T06:14:27.484Z,1.92
2022-10-29T06:19:29.332Z,3.25
2022-10-29T06:24:31.222Z,2.67
2022-10-29T06:29:32.996Z,2.10
2022-10-29T06:34:34.729Z,3.00
2022-10-29T06:39:36.588Z,2.30
2022-10-29T06:44:38.430Z,3.65
2022-10-29T06:49:40.191Z,4.00
2022-10-29T06:54:41.905Z,3.33
2022-10-29T06:59:44.342Z,3.92
2022-10-29T07:04:46.350Z,4.38
2022-10-29T07:09:48.204Z,3.88
2022-10-29T07:14:49.963Z,4.10
2022-10-29T07:19:51.819Z,4.35
2022-10-29T07:24:55.890Z,4.63
2022-10-29T07:30:00.407Z,4.20
2022-10-29T07:35:02.381Z,4.88
2022-10-29T07:40:05.194Z,3.97
2022-10-29T07:45:07.351Z,3.88
2022-10-29T07:50:09.789Z,3.13
2022-10-29T07:55:11.633Z,3.70
2022-10-29T08:00:14.940Z,2.80
2022-10-29T08:05:18.150Z,3.60
2022-10-29T08:10:20.033Z,3.65
2022-10-29T08:15:23.581Z,3.15
2022-10-29T08:20:28.881Z,2.72
2022-10-29T08:25:30.749Z,2.90
2022-10-29T08:30:32.606Z,3.13
2022-10-29T08:35:34.919Z,3.35
2022-10-29T08:41:05.675Z,2.72
2022-10-29T08:46:24.183Z,3.03
2022-10-29T08:51:28.655Z,3.10
2022-10-29T08:56:34.593Z,3.42
2022-10-29T09:01:37.182Z,2.83
2022-10-29T09:06:55.058Z,3.25
2022-10-29T09:12:02.727Z,3.83
2022-10-29T09:22:27.082Z,3.33
2022-10-29T09:27:53.851Z,3.47
2022-10-29T09:33:07.349Z,4.22
2022-10-29T09:38:19.581Z,3.22
2022-10-29T09:43:34.468Z,3.70
2022-10-29T09:48:54.179Z,4.03
2022-10-29T09:53:56.210Z,3.10
2022-10-29T09:59:13.453Z,4.10
2022-10-29T10:04:37.459Z,3.45
2022-10-29T10:09:55.733Z,5.53
2022-10-29T10:15:20.367Z,5.55
2022-10-29T10:20:33.397Z,6.32
2022-10-29T10:25:39.897Z,5.30
2022-10-29T10:30:43.376Z,5.97
2022-10-29T10:35:45.383Z,6.15
2022-10-29T10:41:08.868Z,6.28
2022-10-29T10:46:31.590Z,6.28
2022-10-29T10:51:36.268Z,6.72
2022-10-29T10:57:02.247Z,5.60
2022-10-29T11:02:05.274Z,5.18
2022-10-29T11:07:11.328Z,6.50
2022-10-29T11:12:34.425Z,5.60
2022-10-29T11:17:41.902Z,5.00
2022-10-29T11:22:50.166Z,4.97
2022-10-29T11:28:24.194Z,5.22
2022-10-29T11:33:39.230Z,5.35
2022-10-29T11:38:50.722Z,5.60
2022-10-29T11:43:52.892Z,5.25
2022-10-29T11:49:12.886Z,5.43
2022-10-29T11:54:35.794Z,5.75
2022-10-29T11:59:43.273Z,5.53
2022-10-29T12:04:51.232Z,5.60
2022-10-29T12:10:34.301Z,6.30
2022-10-29T12:15:47.291Z,7.00
2022-10-29T12:21:03.101Z,5.38
2022-10-29T12:26:04.902Z,6.53
2022-10-29T12:31:10.722Z,8.45
2022-10-29T12:36:24.685Z,9.55
2022-10-29T12:41:32.536Z,8.73
2022-10-29T12:46:48.347Z,8.40
2022-10-29T12:57:14.581Z,9.00
2022-10-29T13:02:46.240Z,7.85
2022-10-29T13:07:48.297Z,9.68
2022-10-29T13:12:55.592Z,8.80
2022-10-29T13:18:04.922Z,8.85
2022-10-29T13:23:22.007Z,11.90
2022-10-29T13:28:23.811Z,12.97
2022-10-29T13:33:28.549Z,11.50
2022-10-29T13:38:38.186Z,10.38
2022-10-29T13:44:00.187Z,9.63
2022-10-29T13:49:10.175Z,10.00
2022-10-29T13:59:43.625Z,9.68
2022-10-29T14:04:51.036Z,8.57
2022-10-29T14:09:56.963Z,9.75
2022-10-29T14:15:11.807Z,8.65
2022-10-29T14:20:26.722Z,8.00
2022-10-29T14:25:35.760Z,8.80
2022-10-29T14:30:37.660Z,7.95
2022-10-29T14:35:39.781Z,7.57
2022-10-29T14:40:44.964Z,7.32
2022-10-29T14:45:47.154Z,7.78
2022-10-29T14:50:51.569Z,8.68
2022-10-29T14:55:53.667Z,8.65
2022-10-29T15:01:01.972Z,8.70
2022-10-29T15:06:30.133Z,7.95
2022-10-29T15:11:36.642Z,9.05
2022-10-29T15:16:41.560Z,7.50
2022-10-29T15:21:45.108Z,8.95
2022-10-29T15:26:57.147Z,8.10
2022-10-29T15:31:59.263Z,8.75
2022-10-29T15:37:19.126Z,8.00
2022-10-29T15:42:22.983Z,7.95
2022-10-29T15:47:28.468Z,7.43
2022-10-29T15:52:38.045Z,7.57
2022-10-29T15:57:40.607Z,8.05
2022-10-29T16:02:42.657Z,8.02
2022-10-29T16:07:47.136Z,7.13
2022-10-29T16:12:49.964Z,8.23
2022-10-29T16:17:51.863Z,8.27
2022-10-29T16:22:53.727Z,6.78
2022-10-29T16:27:56.214Z,9.10
2022-10-29T16:33:00.934Z,8.95
2022-10-29T16:38:03.351Z,9.05
2022-10-29T16:43:05.573Z,9.40
2022-10-29T16:48:07.411Z,8.50
2022-10-29T16:53:11.211Z,9.40
2022-10-29T16:58:15.283Z,8.35
2022-10-29T17:03:18.167Z,9.45
2022-10-29T17:08:20.650Z,9.32
2022-10-29T17:13:22.445Z,8.77
2022-10-29T17:18:24.826Z,7.78
2022-10-29T17:23:26.922Z,8.98
2022-10-29T17:28:29.232Z,8.88
2022-10-29T17:33:31.062Z,8.43
2022-10-29T17:38:32.895Z,9.18
2022-10-29T17:43:34.726Z,8.85
2022-10-29T17:48:36.929Z,8.52
2022-10-29T17:53:39.347Z,8.23
2022-10-29T17:58:41.197Z,9.85
2022-10-29T18:03:43.435Z,9.15
2022-10-29T18:08:45.322Z,10.50
2022-10-29T18:13:49.027Z,9.77
2022-10-29T18:19:02.187Z,9.93
2022-10-29T18:24:05.554Z,9.38
2022-10-29T18:29:12.359Z,8.70
2022-10-29T18:34:15.376Z,8.33
2022-10-29T18:39:17.377Z,7.95
2022-10-29T18:44:19.219Z,7.95
2022-10-29T18:49:21.421Z,8.60
2022-10-29T18:54:23.361Z,10.45
2022-10-29T18:59:25.281Z,9.50
2022-10-29T19:04:27.203Z,9.35
2022-10-29T19:09:32.549Z,8.50
2022-10-29T19:14:34.378Z,9.48
2022-10-29T19:19:36.478Z,8.35
2022-10-29T19:24:38.293Z,7.53
2022-10-29T19:29:40.167Z,3.97
2022-10-29T19:34:42.110Z,4.95
2022-10-29T19:39:43.926Z,4.05
2022-10-29T19:44:45.699Z,3.97
2022-10-29T19:49:47.459Z,4.30
2022-10-29T19:54:49.220Z,3.72
2022-10-29T19:59:50.960Z,3.80
2022-10-29T20:04:52.773Z,2.95
2022-10-29T20:09:54.578Z,3.13
2022-10-29T20:14:56.453Z,2.90
2022-10-29T20:19:58.253Z,2.83
2022-10-29T20:24:59.986Z,2.95
2022-10-29T20:30:01.796Z,3.50
2022-10-29T20:35:03.776Z,2.95
2022-10-29T20:40:06.067Z,2.83
2022-10-29T20:45:08.472Z,2.30
2022-10-29T20:50:10.197Z,2.67
2022-10-29T20:55:12.392Z,2.78
2022-10-29T21:00:14.547Z,3.10
2022-10-29T21:05:16.308Z,2.60
2022-10-29T21:10:18.117Z,2.00
2022-10-29T21:15:20.041Z,2.70
2022-10-29T21:20:27.352Z,2.78
2022-10-29T21:25:29.423Z,2.20
2022-10-29T21:30:32.057Z,2.95
2022-10-29T21:35:33.874Z,3.25
2022-10-29T21:40:35.606Z,3.92
2022-10-29T21:45:37.364Z,2.70
2022-10-29T21:50:39.722Z,3.00
2022-10-29T21:55:41.504Z,2.45
2022-10-29T22:00:43.250Z,2.45
2022-10-29T22:05:45.033Z,1.88
2022-10-29T22:10:46.858Z,2.05
2022-10-29T22:15:48.639Z,2.30
2022-10-29T22:20:50.504Z,2.22
2022-10-29T22:25:52.372Z,1.45
2022-10-29T22:30:59.362Z,2.70
2022-10-29T22:36:05.663Z,2.23
2022-10-29T22:41:10.207Z,1.98
2022-10-29T22:46:14.826Z,3.53
2022-10-29T22:51:22.642Z,2.38
2022-10-29T22:56:25.676Z,2.22
2022-10-29T23:01:30.165Z,2.72
2022-10-29T23:06:32.520Z,2.20
2022-10-29T23:11:41.489Z,2.40
2022-10-29T23:16:43.362Z,2.72
2022-10-29T23:21:45.436Z,2.20
2022-10-29T23:26:47.323Z,2.00
2022-10-29T23:31:49.173Z,1.90
2022-10-29T23:41:57.911Z,1.30
2022-10-29T23:46:59.823Z,1.70
2022-10-29T23:52:01.630Z,2.13
2022-10-29T23:57:03.582Z,2.22
